sensor_id;sensor_type;location;lat;lon;timestamp;temperature;humidity
20349;DHT22;10332;50.208;18.988;2023-07-24T00:00:35;22.80;1.00
20349;DHT22;10332;50.208;18.988;2023-07-24T00:03:23;22.80;1.00
20349;DHT22;10332;50.208;18.988;2023-07-24T00:05:50;22.80;1.00
20349;DHT22;10332;50.208;18.988;2023-07-24T00:08:18;22.90;1.00
20349;DHT22;10332;50.208;18.988;2023-07-24T00:10:45;22.80;1.00
20349;DHT22;10332;50.208;18.988;2023-07-24T00:13:12;22.90;1.00
20349;DHT22;10332;50.208;18.988;2023-07-24T00:15:40;22.90;1.00
20349;DHT22;10332;50.208;18.988;2023-07-24T00:18:07;22.80;1.10
20349;DHT22;10332;50.208;18.988;2023-07-24T00:20:35;22.80;1.90
20349;DHT22;10332;50.208;18.988;2023-07-24T00:23:03;22.80;2.80
20349;DHT22;10332;50.208;18.988;2023-07-24T00:25:30;22.80;2.80
20349;DHT22;10332;50.208;18.988;2023-07-24T00:27:57;22.80;3.10
20349;DHT22;10332;50.208;18.988;2023-07-24T00:30:25;22.80;3.60
20349;DHT22;10332;50.208;18.988;2023-07-24T00:32:52;22.80;3.80
20349;DHT22;10332;50.208;18.988;2023-07-24T00:35:20;22.80;3.80
20349;DHT22;10332;50.208;18.988;2023-07-24T00:37:47;22.80;4.90
20349;DHT22;10332;50.208;18.988;2023-07-24T00:40:15;22.80;6.60
20349;DHT22;10332;50.208;18.988;2023-07-24T00:42:47;22.80;7.10
20349;DHT22;10332;50.208;18.988;2023-07-24T00:45:15;22.80;9.60
20349;DHT22;10332;50.208;18.988;2023-07-24T00:47:43;22.70;9.80
20349;DHT22;10332;50.208;18.988;2023-07-24T00:50:11;22.70;12.00
20349;DHT22;10332;50.208;18.988;2023-07-24T00:52:40;22.70;13.80
20349;DHT22;10332;50.208;18.988;2023-07-24T00:55:11;22.70;14.70
20349;DHT22;10332;50.208;18.988;2023-07-24T00:57:40;22.70;15.20
20349;DHT22;10332;50.208;18.988;2023-07-24T01:00:08;22.60;15.90
20349;DHT22;10332;50.208;18.988;2023-07-24T01:02:37;22.70;15.60
20349;DHT22;10332;50.208;18.988;2023-07-24T01:05:06;22.60;15.80
20349;DHT22;10332;50.208;18.988;2023-07-24T01:07:36;22.70;16.00
20349;DHT22;10332;50.208;18.988;2023-07-24T01:10:04;22.70;17.50
20349;DHT22;10332;50.208;18.988;2023-07-24T01:15:20;22.60;20.70
20349;DHT22;10332;50.208;18.988;2023-07-24T01:18:09;22.60;21.00
20349;DHT22;10332;50.208;18.988;2023-07-24T01:20:40;22.60;21.30
20349;DHT22;10332;50.208;18.988;2023-07-24T01:23:38;22.60;22.30
20349;DHT22;10332;50.208;18.988;2023-07-24T01:26:21;22.60;23.90
20349;DHT22;10332;50.208;18.988;2023-07-24T01:28:51;22.60;24.10
20349;DHT22;10332;50.208;18.988;2023-07-24T01:31:18;22.50;25.20
20349;DHT22;10332;50.208;18.988;2023-07-24T01:33:46;22.50;25.80
20349;DHT22;10332;50.208;18.988;2023-07-24T01:36:14;22.50;25.80
20349;DHT22;10332;50.208;18.988;2023-07-24T01:38:43;22.50;27.20
20349;DHT22;10332;50.208;18.988;2023-07-24T01:41:10;22.50;27.30
20349;DHT22;10332;50.208;18.988;2023-07-24T01:43:38;22.50;28.10
20349;DHT22;10332;50.208;18.988;2023-07-24T01:46:05;22.50;29.30
20349;DHT22;10332;50.208;18.988;2023-07-24T01:48:33;22.50;29.50
20349;DHT22;10332;50.208;18.988;2023-07-24T01:51:00;22.40;29.40
20349;DHT22;10332;50.208;18.988;2023-07-24T01:53:28;22.40;31.00
20349;DHT22;10332;50.208;18.988;2023-07-24T01:55:55;22.40;30.50
20349;DHT22;10332;50.208;18.988;2023-07-24T01:58:23;22.40;33.10
20349;DHT22;10332;50.208;18.988;2023-07-24T02:00:50;22.40;34.20
20349;DHT22;10332;50.208;18.988;2023-07-24T02:03:18;22.40;34.10
20349;DHT22;10332;50.208;18.988;2023-07-24T02:05:49;22.40;34.10
20349;DHT22;10332;50.208;18.988;2023-07-24T02:08:18;22.40;36.40
20349;DHT22;10332;50.208;18.988;2023-07-24T02:10:49;22.40;36.70
20349;DHT22;10332;50.208;18.988;2023-07-24T02:13:18;22.30;36.50
20349;DHT22;10332;50.208;18.988;2023-07-24T02:15:45;22.30;37.70
20349;DHT22;10332;50.208;18.988;2023-07-24T02:18:13;22.30;39.50
20349;DHT22;10332;50.208;18.988;2023-07-24T02:20:40;22.20;42.50
20349;DHT22;10332;50.208;18.988;2023-07-24T02:23:09;22.20;42.50
20349;DHT22;10332;50.208;18.988;2023-07-24T02:25:37;22.20;45.90
20349;DHT22;10332;50.208;18.988;2023-07-24T02:28:04;22.20;45.30
20349;DHT22;10332;50.208;18.988;2023-07-24T02:30:32;22.20;46.30
20349;DHT22;10332;50.208;18.988;2023-07-24T02:32:59;22.20;45.50
20349;DHT22;10332;50.208;18.988;2023-07-24T02:35:27;22.10;47.60
20349;DHT22;10332;50.208;18.988;2023-07-24T02:37:54;22.10;50.50
20349;DHT22;10332;50.208;18.988;2023-07-24T02:40:22;22.10;52.90
20349;DHT22;10332;50.208;18.988;2023-07-24T02:42:49;22.00;52.90
20349;DHT22;10332;50.208;18.988;2023-07-24T02:45:17;22.00;54.40
20349;DHT22;10332;50.208;18.988;2023-07-24T02:47:44;22.00;53.40
20349;DHT22;10332;50.208;18.988;2023-07-24T02:50:11;21.90;53.50
20349;DHT22;10332;50.208;18.988;2023-07-24T02:52:39;21.90;54.70
20349;DHT22;10332;50.208;18.988;2023-07-24T02:55:07;21.80;54.90
20349;DHT22;10332;50.208;18.988;2023-07-24T02:57:34;21.80;54.40
20349;DHT22;10332;50.208;18.988;2023-07-24T03:00:02;21.80;55.30
20349;DHT22;10332;50.208;18.988;2023-07-24T03:02:30;21.80;54.90
20349;DHT22;10332;50.208;18.988;2023-07-24T03:04:58;21.80;59.00
20349;DHT22;10332;50.208;18.988;2023-07-24T03:07:25;21.70;57.30
20349;DHT22;10332;50.208;18.988;2023-07-24T03:09:53;21.70;59.90
20349;DHT22;10332;50.208;18.988;2023-07-24T03:12:20;21.70;62.30
20349;DHT22;10332;50.208;18.988;2023-07-24T03:14:48;21.70;63.40
20349;DHT22;10332;50.208;18.988;2023-07-24T03:17:15;21.70;63.70
20349;DHT22;10332;50.208;18.988;2023-07-24T03:19:43;21.70;63.10
20349;DHT22;10332;50.208;18.988;2023-07-24T03:22:10;21.70;62.90
20349;DHT22;10332;50.208;18.988;2023-07-24T03:24:38;21.70;64.60
20349;DHT22;10332;50.208;18.988;2023-07-24T03:27:06;21.60;64.10
20349;DHT22;10332;50.208;18.988;2023-07-24T03:29:33;21.60;64.80
20349;DHT22;10332;50.208;18.988;2023-07-24T03:32:01;21.60;65.10
20349;DHT22;10332;50.208;18.988;2023-07-24T03:34:28;21.60;67.10
20349;DHT22;10332;50.208;18.988;2023-07-24T03:36:56;21.60;66.60
20349;DHT22;10332;50.208;18.988;2023-07-24T03:39:23;21.60;70.00
20349;DHT22;10332;50.208;18.988;2023-07-24T03:41:51;21.60;67.70
20349;DHT22;10332;50.208;18.988;2023-07-24T03:44:18;21.60;72.00
20349;DHT22;10332;50.208;18.988;2023-07-24T03:46:46;21.70;70.00
20349;DHT22;10332;50.208;18.988;2023-07-24T03:49:13;21.70;73.20
20349;DHT22;10332;50.208;18.988;2023-07-24T03:51:41;21.70;71.00
20349;DHT22;10332;50.208;18.988;2023-07-24T03:54:09;21.70;72.30
20349;DHT22;10332;50.208;18.988;2023-07-24T03:56:37;21.70;76.70
20349;DHT22;10332;50.208;18.988;2023-07-24T03:59:05;21.80;77.80
20349;DHT22;10332;50.208;18.988;2023-07-24T04:01:33;21.80;78.10
20349;DHT22;10332;50.208;18.988;2023-07-24T04:04:00;21.90;81.20
20349;DHT22;10332;50.208;18.988;2023-07-24T04:06:28;21.80;80.30
20349;DHT22;10332;50.208;18.988;2023-07-24T04:08:57;21.90;81.10
20349;DHT22;10332;50.208;18.988;2023-07-24T04:11:25;21.90;80.70
20349;DHT22;10332;50.208;18.988;2023-07-24T04:13:52;22.00;83.50
20349;DHT22;10332;50.208;18.988;2023-07-24T04:16:19;22.00;85.00
20349;DHT22;10332;50.208;18.988;2023-07-24T04:18:47;22.10;84.30
20349;DHT22;10332;50.208;18.988;2023-07-24T04:21:15;22.10;84.10
20349;DHT22;10332;50.208;18.988;2023-07-24T04:23:42;22.20;84.40
20349;DHT22;10332;50.208;18.988;2023-07-24T04:26:09;22.20;84.60
20349;DHT22;10332;50.208;18.988;2023-07-24T04:28:37;22.30;84.60
20349;DHT22;10332;50.208;18.988;2023-07-24T04:31:05;22.30;85.00
20349;DHT22;10332;50.208;18.988;2023-07-24T04:33:32;22.30;84.10
20349;DHT22;10332;50.208;18.988;2023-07-24T04:36:00;22.30;84.40
20349;DHT22;10332;50.208;18.988;2023-07-24T04:38:27;22.40;85.10
20349;DHT22;10332;50.208;18.988;2023-07-24T04:40:55;22.40;84.90
20349;DHT22;10332;50.208;18.988;2023-07-24T04:43:22;22.50;83.60
20349;DHT22;10332;50.208;18.988;2023-07-24T04:45:50;22.50;83.40
20349;DHT22;10332;50.208;18.988;2023-07-24T04:48:17;22.60;83.00
20349;DHT22;10332;50.208;18.988;2023-07-24T04:50:45;22.70;82.00
20349;DHT22;10332;50.208;18.988;2023-07-24T04:53:12;22.70;81.40
20349;DHT22;10332;50.208;18.988;2023-07-24T04:55:40;22.80;80.90
20349;DHT22;10332;50.208;18.988;2023-07-24T04:58:07;22.90;80.20
20349;DHT22;10332;50.208;18.988;2023-07-24T05:00:35;22.90;80.60
20349;DHT22;10332;50.208;18.988;2023-07-24T05:03:02;22.90;79.90
20349;DHT22;10332;50.208;18.988;2023-07-24T05:05:30;22.90;79.20
20349;DHT22;10332;50.208;18.988;2023-07-24T05:07:58;23.00;78.80
20349;DHT22;10332;50.208;18.988;2023-07-24T05:10:26;23.00;78.50
20349;DHT22;10332;50.208;18.988;2023-07-24T05:12:53;23.10;77.90
20349;DHT22;10332;50.208;18.988;2023-07-24T05:15:23;23.10;77.40
20349;DHT22;10332;50.208;18.988;2023-07-24T05:17:51;23.10;77.10
20349;DHT22;10332;50.208;18.988;2023-07-24T05:20:19;23.20;76.80
20349;DHT22;10332;50.208;18.988;2023-07-24T05:22:46;23.10;76.80
20349;DHT22;10332;50.208;18.988;2023-07-24T05:25:14;23.20;76.90
20349;DHT22;10332;50.208;18.988;2023-07-24T05:27:41;23.20;77.20
20349;DHT22;10332;50.208;18.988;2023-07-24T05:30:12;23.20;77.00
20349;DHT22;10332;50.208;18.988;2023-07-24T05:32:39;23.20;77.20
20349;DHT22;10332;50.208;18.988;2023-07-24T05:35:07;23.30;76.40
20349;DHT22;10332;50.208;18.988;2023-07-24T05:37:34;23.30;75.70
20349;DHT22;10332;50.208;18.988;2023-07-24T05:40:02;23.40;74.80
20349;DHT22;10332;50.208;18.988;2023-07-24T05:42:30;23.50;73.80
20349;DHT22;10332;50.208;18.988;2023-07-24T05:44:57;23.50;72.20
20349;DHT22;10332;50.208;18.988;2023-07-24T05:47:25;23.60;72.50
20349;DHT22;10332;50.208;18.988;2023-07-24T05:49:53;23.60;71.70
20349;DHT22;10332;50.208;18.988;2023-07-24T05:52:20;23.60;71.50
20349;DHT22;10332;50.208;18.988;2023-07-24T05:54:48;23.50;71.10
20349;DHT22;10332;50.208;18.988;2023-07-24T05:57:15;23.60;71.80
20349;DHT22;10332;50.208;18.988;2023-07-24T05:59:43;23.60;72.50
20349;DHT22;10332;50.208;18.988;2023-07-24T06:02:10;23.50;73.00
20349;DHT22;10332;50.208;18.988;2023-07-24T06:04:38;23.60;72.40
20349;DHT22;10332;50.208;18.988;2023-07-24T06:07:05;23.60;71.10
20349;DHT22;10332;50.208;18.988;2023-07-24T06:09:33;23.70;70.00
20349;DHT22;10332;50.208;18.988;2023-07-24T06:12:00;23.80;70.00
20349;DHT22;10332;50.208;18.988;2023-07-24T06:14:28;23.80;69.30
20349;DHT22;10332;50.208;18.988;2023-07-24T06:16:55;23.80;69.20
20349;DHT22;10332;50.208;18.988;2023-07-24T06:19:23;23.80;67.10
20349;DHT22;10332;50.208;18.988;2023-07-24T06:21:50;23.80;66.90
20349;DHT22;10332;50.208;18.988;2023-07-24T06:24:18;23.90;67.40
20349;DHT22;10332;50.208;18.988;2023-07-24T06:26:46;23.90;67.10
20349;DHT22;10332;50.208;18.988;2023-07-24T06:29:13;24.00;67.20
20349;DHT22;10332;50.208;18.988;2023-07-24T06:31:41;24.10;65.20
20349;DHT22;10332;50.208;18.988;2023-07-24T06:34:09;24.10;64.50
20349;DHT22;10332;50.208;18.988;2023-07-24T06:36:37;24.20;60.90
20349;DHT22;10332;50.208;18.988;2023-07-24T06:39:05;24.20;58.50
20349;DHT22;10332;50.208;18.988;2023-07-24T06:41:32;24.30;57.40
20349;DHT22;10332;50.208;18.988;2023-07-24T06:44:00;24.30;57.40
20349;DHT22;10332;50.208;18.988;2023-07-24T06:46:27;24.40;56.70
20349;DHT22;10332;50.208;18.988;2023-07-24T06:48:55;24.30;57.10
20349;DHT22;10332;50.208;18.988;2023-07-24T06:51:23;24.30;57.30
20349;DHT22;10332;50.208;18.988;2023-07-24T06:53:50;24.40;58.20
20349;DHT22;10332;50.208;18.988;2023-07-24T06:56:18;24.40;57.20
20349;DHT22;10332;50.208;18.988;2023-07-24T06:58:45;24.50;57.20
20349;DHT22;10332;50.208;18.988;2023-07-24T07:01:13;24.50;52.70
20349;DHT22;10332;50.208;18.988;2023-07-24T07:03:40;24.60;51.40
20349;DHT22;10332;50.208;18.988;2023-07-24T07:06:08;24.60;51.60
20349;DHT22;10332;50.208;18.988;2023-07-24T07:08:54;24.70;51.30
20349;DHT22;10332;50.208;18.988;2023-07-24T07:11:21;24.90;45.80
20349;DHT22;10332;50.208;18.988;2023-07-24T07:13:49;25.00;40.40
20349;DHT22;10332;50.208;18.988;2023-07-24T07:16:16;25.10;42.00
20349;DHT22;10332;50.208;18.988;2023-07-24T07:18:46;25.10;42.30
20349;DHT22;10332;50.208;18.988;2023-07-24T07:21:19;25.10;40.70
20349;DHT22;10332;50.208;18.988;2023-07-24T07:23:47;25.20;37.00
20349;DHT22;10332;50.208;18.988;2023-07-24T07:26:14;25.20;37.40
20349;DHT22;10332;50.208;18.988;2023-07-24T07:28:42;25.30;36.90
20349;DHT22;10332;50.208;18.988;2023-07-24T07:31:09;25.30;31.70
20349;DHT22;10332;50.208;18.988;2023-07-24T07:33:38;25.30;31.80
20349;DHT22;10332;50.208;18.988;2023-07-24T07:36:05;25.40;30.00
20349;DHT22;10332;50.208;18.988;2023-07-24T07:38:33;25.50;27.50
20349;DHT22;10332;50.208;18.988;2023-07-24T07:41:04;25.60;22.40
20349;DHT22;10332;50.208;18.988;2023-07-24T07:43:32;25.80;20.80
20349;DHT22;10332;50.208;18.988;2023-07-24T07:46:00;26.10;17.10
20349;DHT22;10332;50.208;18.988;2023-07-24T07:48:27;26.50;15.90
20349;DHT22;10332;50.208;18.988;2023-07-24T07:50:55;26.60;13.40
20349;DHT22;10332;50.208;18.988;2023-07-24T07:53:22;26.80;7.10
20349;DHT22;10332;50.208;18.988;2023-07-24T07:55:57;26.70;3.90
20349;DHT22;10332;50.208;18.988;2023-07-24T07:58:25;26.80;4.10
20349;DHT22;10332;50.208;18.988;2023-07-24T08:00:52;27.00;1.00
20349;DHT22;10332;50.208;18.988;2023-07-24T08:03:20;27.20;1.00
20349;DHT22;10332;50.208;18.988;2023-07-24T08:05:48;27.30;1.00
20349;DHT22;10332;50.208;18.988;2023-07-24T08:08:16;27.30;1.00
20349;DHT22;10332;50.208;18.988;2023-07-24T08:10:43;27.40;1.00
20349;DHT22;10332;50.208;18.988;2023-07-24T08:13:10;27.20;1.00
20349;DHT22;10332;50.208;18.988;2023-07-24T08:15:38;27.20;1.00
20349;DHT22;10332;50.208;18.988;2023-07-24T08:18:06;27.30;1.00
20349;DHT22;10332;50.208;18.988;2023-07-24T08:20:38;27.50;1.00
20349;DHT22;10332;50.208;18.988;2023-07-24T08:23:08;27.80;1.00
20349;DHT22;10332;50.208;18.988;2023-07-24T08:25:35;27.80;1.00
20349;DHT22;10332;50.208;18.988;2023-07-24T08:28:03;28.00;1.00
20349;DHT22;10332;50.208;18.988;2023-07-24T08:30:34;28.00;1.00
20349;DHT22;10332;50.208;18.988;2023-07-24T08:33:02;27.90;1.00
20349;DHT22;10332;50.208;18.988;2023-07-24T08:35:30;27.80;1.00
20349;DHT22;10332;50.208;18.988;2023-07-24T08:37:58;27.70;1.00
20349;DHT22;10332;50.208;18.988;2023-07-24T08:40:26;27.80;1.00
20349;DHT22;10332;50.208;18.988;2023-07-24T08:42:54;27.90;1.00
20349;DHT22;10332;50.208;18.988;2023-07-24T08:45:23;28.20;1.00
20349;DHT22;10332;50.208;18.988;2023-07-24T08:47:53;28.30;1.00
20349;DHT22;10332;50.208;18.988;2023-07-24T08:50:21;28.30;1.00
20349;DHT22;10332;50.208;18.988;2023-07-24T08:52:49;28.30;1.00
20349;DHT22;10332;50.208;18.988;2023-07-24T08:55:18;28.20;1.00
20349;DHT22;10332;50.208;18.988;2023-07-24T08:57:47;28.30;1.00
20349;DHT22;10332;50.208;18.988;2023-07-24T09:00:15;28.50;1.00
20349;DHT22;10332;50.208;18.988;2023-07-24T09:02:43;28.80;1.00
20349;DHT22;10332;50.208;18.988;2023-07-24T09:05:10;28.90;1.00
20349;DHT22;10332;50.208;18.988;2023-07-24T09:07:40;29.00;1.00
20349;DHT22;10332;50.208;18.988;2023-07-24T09:10:08;29.00;1.00
20349;DHT22;10332;50.208;18.988;2023-07-24T09:12:38;29.20;1.00
20349;DHT22;10332;50.208;18.988;2023-07-24T09:15:09;29.20;1.00
20349;DHT22;10332;50.208;18.988;2023-07-24T09:17:50;29.30;1.00
20349;DHT22;10332;50.208;18.988;2023-07-24T09:20:20;29.30;1.00
20349;DHT22;10332;50.208;18.988;2023-07-24T09:22:52;29.30;1.00
20349;DHT22;10332;50.208;18.988;2023-07-24T09:25:42;29.10;1.00
20349;DHT22;10332;50.208;18.988;2023-07-24T09:28:16;29.00;1.00
20349;DHT22;10332;50.208;18.988;2023-07-24T09:30:55;29.00;1.00
20349;DHT22;10332;50.208;18.988;2023-07-24T09:33:35;28.80;1.00
20349;DHT22;10332;50.208;18.988;2023-07-24T09:36:05;28.90;1.00
20349;DHT22;10332;50.208;18.988;2023-07-24T09:38:36;29.00;1.00
20349;DHT22;10332;50.208;18.988;2023-07-24T09:41:06;29.00;1.00
20349;DHT22;10332;50.208;18.988;2023-07-24T09:43:34;29.10;1.00
20349;DHT22;10332;50.208;18.988;2023-07-24T09:46:08;29.70;1.00
20349;DHT22;10332;50.208;18.988;2023-07-24T09:48:55;30.80;1.00
20349;DHT22;10332;50.208;18.988;2023-07-24T09:51:29;31.90;1.00
20349;DHT22;10332;50.208;18.988;2023-07-24T09:56:44;33.40;1.00
20349;DHT22;10332;50.208;18.988;2023-07-24T09:59:20;35.00;1.00
20349;DHT22;10332;50.208;18.988;2023-07-24T10:01:50;35.60;1.00
20349;DHT22;10332;50.208;18.988;2023-07-24T10:04:19;37.10;1.00
20349;DHT22;10332;50.208;18.988;2023-07-24T10:06:48;37.60;1.00
20349;DHT22;10332;50.208;18.988;2023-07-24T10:09:16;38.30;1.00
20349;DHT22;10332;50.208;18.988;2023-07-24T10:11:46;38.10;1.00
20349;DHT22;10332;50.208;18.988;2023-07-24T10:14:13;38.10;1.00
20349;DHT22;10332;50.208;18.988;2023-07-24T10:16:41;36.90;1.00
20349;DHT22;10332;50.208;18.988;2023-07-24T10:19:14;36.20;1.00
20349;DHT22;10332;50.208;18.988;2023-07-24T10:21:47;36.80;1.00
20349;DHT22;10332;50.208;18.988;2023-07-24T10:24:16;36.70;1.00
20349;DHT22;10332;50.208;18.988;2023-07-24T10:27:04;35.60;1.00
20349;DHT22;10332;50.208;18.988;2023-07-24T10:29:35;34.40;1.00
20349;DHT22;10332;50.208;18.988;2023-07-24T10:32:03;33.50;1.00
20349;DHT22;10332;50.208;18.988;2023-07-24T10:34:59;33.10;1.00
20349;DHT22;10332;50.208;18.988;2023-07-24T10:37:35;32.70;1.00
20349;DHT22;10332;50.208;18.988;2023-07-24T10:40:05;32.10;1.00
20349;DHT22;10332;50.208;18.988;2023-07-24T10:42:33;31.40;1.00
20349;DHT22;10332;50.208;18.988;2023-07-24T10:45:07;30.90;1.00
20349;DHT22;10332;50.208;18.988;2023-07-24T10:47:36;30.50;1.00
20349;DHT22;10332;50.208;18.988;2023-07-24T10:50:04;30.20;1.00
20349;DHT22;10332;50.208;18.988;2023-07-24T10:52:33;30.00;1.00
20349;DHT22;10332;50.208;18.988;2023-07-24T10:55:04;29.90;1.00
20349;DHT22;10332;50.208;18.988;2023-07-24T10:57:32;29.70;1.00
20349;DHT22;10332;50.208;18.988;2023-07-24T10:59:59;29.40;1.00
20349;DHT22;10332;50.208;18.988;2023-07-24T11:02:27;29.20;1.00
20349;DHT22;10332;50.208;18.988;2023-07-24T11:04:58;28.90;1.00
20349;DHT22;10332;50.208;18.988;2023-07-24T11:07:32;28.80;1.00
20349;DHT22;10332;50.208;18.988;2023-07-24T11:10:00;28.50;1.00
20349;DHT22;10332;50.208;18.988;2023-07-24T11:12:28;28.50;1.00
20349;DHT22;10332;50.208;18.988;2023-07-24T11:14:59;28.50;1.00
20349;DHT22;10332;50.208;18.988;2023-07-24T11:17:37;28.60;1.00
20349;DHT22;10332;50.208;18.988;2023-07-24T11:20:13;28.90;1.00
20349;DHT22;10332;50.208;18.988;2023-07-24T11:22:43;29.40;1.00
20349;DHT22;10332;50.208;18.988;2023-07-24T11:25:11;29.80;1.00
20349;DHT22;10332;50.208;18.988;2023-07-24T11:27:43;30.10;1.00
20349;DHT22;10332;50.208;18.988;2023-07-24T11:30:12;30.30;1.00
20349;DHT22;10332;50.208;18.988;2023-07-24T11:32:48;30.40;1.00
20349;DHT22;10332;50.208;18.988;2023-07-24T11:35:16;30.50;1.00
20349;DHT22;10332;50.208;18.988;2023-07-24T11:37:44;30.80;1.00
20349;DHT22;10332;50.208;18.988;2023-07-24T11:40:11;31.10;1.00
20349;DHT22;10332;50.208;18.988;2023-07-24T11:42:46;31.40;1.00
20349;DHT22;10332;50.208;18.988;2023-07-24T11:45:15;31.60;1.00
20349;DHT22;10332;50.208;18.988;2023-07-24T11:47:47;31.70;1.00
20349;DHT22;10332;50.208;18.988;2023-07-24T11:50:16;31.80;1.00
20349;DHT22;10332;50.208;18.988;2023-07-24T11:52:52;31.90;1.00
20349;DHT22;10332;50.208;18.988;2023-07-24T11:55:30;32.00;1.00
20349;DHT22;10332;50.208;18.988;2023-07-24T11:58:00;32.10;1.00
20349;DHT22;10332;50.208;18.988;2023-07-24T12:00:36;32.10;1.00
20349;DHT22;10332;50.208;18.988;2023-07-24T12:03:04;32.00;1.00
20349;DHT22;10332;50.208;18.988;2023-07-24T12:05:39;31.90;1.00
20349;DHT22;10332;50.208;18.988;2023-07-24T12:08:14;31.80;1.00
20349;DHT22;10332;50.208;18.988;2023-07-24T12:10:41;31.70;1.00
20349;DHT22;10332;50.208;18.988;2023-07-24T12:13:09;31.70;1.00
20349;DHT22;10332;50.208;18.988;2023-07-24T12:15:36;31.70;1.00
20349;DHT22;10332;50.208;18.988;2023-07-24T12:18:05;31.70;1.00
20349;DHT22;10332;50.208;18.988;2023-07-24T12:20:34;31.70;1.00
20349;DHT22;10332;50.208;18.988;2023-07-24T12:23:02;31.70;1.00
20349;DHT22;10332;50.208;18.988;2023-07-24T12:25:30;31.70;1.00
20349;DHT22;10332;50.208;18.988;2023-07-24T12:27:57;31.70;1.00
20349;DHT22;10332;50.208;18.988;2023-07-24T12:30:25;31.80;1.00
20349;DHT22;10332;50.208;18.988;2023-07-24T12:32:53;31.80;1.00
20349;DHT22;10332;50.208;18.988;2023-07-24T12:35:20;31.80;1.00
20349;DHT22;10332;50.208;18.988;2023-07-24T12:37:48;31.90;1.00
20349;DHT22;10332;50.208;18.988;2023-07-24T12:40:15;31.80;1.00
20349;DHT22;10332;50.208;18.988;2023-07-24T12:42:43;31.80;1.00
20349;DHT22;10332;50.208;18.988;2023-07-24T12:45:10;31.80;1.00
20349;DHT22;10332;50.208;18.988;2023-07-24T12:47:38;31.80;1.00
20349;DHT22;10332;50.208;18.988;2023-07-24T12:50:05;31.80;1.00
20349;DHT22;10332;50.208;18.988;2023-07-24T12:52:34;31.80;1.00
20349;DHT22;10332;50.208;18.988;2023-07-24T12:55:02;31.90;1.00
20349;DHT22;10332;50.208;18.988;2023-07-24T12:57:29;31.90;1.00
20349;DHT22;10332;50.208;18.988;2023-07-24T12:59:57;31.80;1.00
20349;DHT22;10332;50.208;18.988;2023-07-24T13:02:24;31.60;1.00
20349;DHT22;10332;50.208;18.988;2023-07-24T13:04:52;31.50;1.00
20349;DHT22;10332;50.208;18.988;2023-07-24T13:07:20;31.40;1.00
20349;DHT22;10332;50.208;18.988;2023-07-24T13:09:47;31.30;1.00
20349;DHT22;10332;50.208;18.988;2023-07-24T13:12:15;31.20;1.00
20349;DHT22;10332;50.208;18.988;2023-07-24T13:14:42;31.30;1.00
20349;DHT22;10332;50.208;18.988;2023-07-24T13:17:10;31.30;1.00
20349;DHT22;10332;50.208;18.988;2023-07-24T13:19:37;31.30;1.00
20349;DHT22;10332;50.208;18.988;2023-07-24T13:22:05;31.30;1.00
20349;DHT22;10332;50.208;18.988;2023-07-24T13:24:33;31.30;1.00
20349;DHT22;10332;50.208;18.988;2023-07-24T13:27:00;31.40;1.00
20349;DHT22;10332;50.208;18.988;2023-07-24T13:29:29;31.40;1.00
20349;DHT22;10332;50.208;18.988;2023-07-24T13:31:58;31.50;1.00
20349;DHT22;10332;50.208;18.988;2023-07-24T13:34:25;31.60;1.00
20349;DHT22;10332;50.208;18.988;2023-07-24T13:36:53;31.60;1.00
20349;DHT22;10332;50.208;18.988;2023-07-24T13:39:21;31.60;1.00
20349;DHT22;10332;50.208;18.988;2023-07-24T13:41:49;31.70;1.00
20349;DHT22;10332;50.208;18.988;2023-07-24T13:44:16;31.80;1.00
20349;DHT22;10332;50.208;18.988;2023-07-24T13:46:44;31.80;1.00
20349;DHT22;10332;50.208;18.988;2023-07-24T13:49:11;31.80;1.00
20349;DHT22;10332;50.208;18.988;2023-07-24T13:51:39;31.80;1.00
20349;DHT22;10332;50.208;18.988;2023-07-24T13:54:06;31.80;1.00
20349;DHT22;10332;50.208;18.988;2023-07-24T13:56:34;31.80;1.00
20349;DHT22;10332;50.208;18.988;2023-07-24T13:59:02;31.80;1.00
20349;DHT22;10332;50.208;18.988;2023-07-24T14:01:30;31.80;1.00
20349;DHT22;10332;50.208;18.988;2023-07-24T14:03:58;31.90;1.00
20349;DHT22;10332;50.208;18.988;2023-07-24T14:06:27;31.90;1.00
20349;DHT22;10332;50.208;18.988;2023-07-24T14:08:55;32.00;1.00
20349;DHT22;10332;50.208;18.988;2023-07-24T14:11:22;32.10;1.00
20349;DHT22;10332;50.208;18.988;2023-07-24T14:13:51;32.10;1.00
20349;DHT22;10332;50.208;18.988;2023-07-24T14:16:19;32.10;1.00
20349;DHT22;10332;50.208;18.988;2023-07-24T14:18:46;32.10;1.00
20349;DHT22;10332;50.208;18.988;2023-07-24T14:21:14;31.90;1.00
20349;DHT22;10332;50.208;18.988;2023-07-24T14:23:41;31.80;1.00
20349;DHT22;10332;50.208;18.988;2023-07-24T14:26:09;31.70;1.00
20349;DHT22;10332;50.208;18.988;2023-07-24T14:28:36;31.60;1.00
20349;DHT22;10332;50.208;18.988;2023-07-24T14:31:04;31.50;1.00
20349;DHT22;10332;50.208;18.988;2023-07-24T14:33:32;31.40;1.00
20349;DHT22;10332;50.208;18.988;2023-07-24T14:35:59;31.20;1.00
20349;DHT22;10332;50.208;18.988;2023-07-24T14:38:27;31.10;1.00
20349;DHT22;10332;50.208;18.988;2023-07-24T14:40:54;31.00;1.00
20349;DHT22;10332;50.208;18.988;2023-07-24T14:43:22;30.90;1.00
20349;DHT22;10332;50.208;18.988;2023-07-24T14:45:49;30.80;1.00
20349;DHT22;10332;50.208;18.988;2023-07-24T14:48:17;30.80;1.00
20349;DHT22;10332;50.208;18.988;2023-07-24T14:50:44;30.70;1.00
20349;DHT22;10332;50.208;18.988;2023-07-24T14:53:11;30.60;1.00
20349;DHT22;10332;50.208;18.988;2023-07-24T14:55:39;30.60;1.00
20349;DHT22;10332;50.208;18.988;2023-07-24T14:58:07;30.50;1.00
20349;DHT22;10332;50.208;18.988;2023-07-24T15:00:34;30.50;1.00
20349;DHT22;10332;50.208;18.988;2023-07-24T15:03:01;30.50;1.00
20349;DHT22;10332;50.208;18.988;2023-07-24T15:05:29;30.40;1.00
20349;DHT22;10332;50.208;18.988;2023-07-24T15:07:57;30.40;1.00
20349;DHT22;10332;50.208;18.988;2023-07-24T15:10:24;30.40;1.00
20349;DHT22;10332;50.208;18.988;2023-07-24T15:12:52;30.40;1.00
20349;DHT22;10332;50.208;18.988;2023-07-24T15:15:19;30.30;1.00
20349;DHT22;10332;50.208;18.988;2023-07-24T15:17:47;30.30;1.00
20349;DHT22;10332;50.208;18.988;2023-07-24T15:20:14;30.30;1.00
20349;DHT22;10332;50.208;18.988;2023-07-24T15:22:43;30.20;1.00
20349;DHT22;10332;50.208;18.988;2023-07-24T15:25:10;30.10;1.00
20349;DHT22;10332;50.208;18.988;2023-07-24T15:27:38;30.00;1.00
20349;DHT22;10332;50.208;18.988;2023-07-24T15:30:07;29.90;1.00
20349;DHT22;10332;50.208;18.988;2023-07-24T15:32:34;29.80;1.00
20349;DHT22;10332;50.208;18.988;2023-07-24T15:35:02;29.70;1.00
20349;DHT22;10332;50.208;18.988;2023-07-24T15:37:32;29.50;1.00
20349;DHT22;10332;50.208;18.988;2023-07-24T15:40:00;29.30;1.00